sensor_id;sensor_type;location;lat;lon;timestamp;pressure;altitude;pressure_sealevel;temperature;humidity
6506;BME280;3286;49.858;8.768;2023-08-20T00:00:20;99542.38;;;25.87;56.00
6506;BME280;3286;49.858;8.768;2023-08-20T00:02:51;99538.78;;;25.99;55.41
6506;BME280;3286;49.858;8.768;2023-08-20T00:05:22;99542.38;;;25.87;55.86
6506;BME280;3286;49.858;8.768;2023-08-20T00:07:49;99536.59;;;25.84;55.44
6506;BME280;3286;49.858;8.768;2023-08-20T00:10:15;99539.66;;;25.87;55.30
6506;BME280;3286;49.858;8.768;2023-08-20T00:12:43;99544.16;;;25.82;55.76
6506;BME280;3286;49.858;8.768;2023-08-20T00:15:11;99540.38;;;25.83;55.59
6506;BME280;3286;49.858;8.768;2023-08-20T00:17:39;99542.56;;;26.15;54.53
6506;BME280;3286;49.858;8.768;2023-08-20T00:20:08;99535.25;;;25.98;54.82
6506;BME280;3286;49.858;8.768;2023-08-20T00:22:38;99541.44;;;25.82;55.54
6506;BME280;3286;49.858;8.768;2023-08-20T00:25:06;99542.03;;;25.84;55.75
6506;BME280;3286;49.858;8.768;2023-08-20T00:27:33;99550.22;;;25.72;55.68
6506;BME280;3286;49.858;8.768;2023-08-20T00:29:59;99545.78;;;25.83;55.22
6506;BME280;3286;49.858;8.768;2023-08-20T00:32:27;99544.41;;;25.51;56.30
6506;BME280;3286;49.858;8.768;2023-08-20T00:34:54;99553.63;;;25.67;56.07
6506;BME280;3286;49.858;8.768;2023-08-20T00:37:21;99550.34;;;25.65;55.94
6506;BME280;3286;49.858;8.768;2023-08-20T00:39:48;99554.03;;;25.59;56.30
6506;BME280;3286;49.858;8.768;2023-08-20T00:42:14;99556.00;;;25.23;56.78
6506;BME280;3286;49.858;8.768;2023-08-20T00:44:41;99558.03;;;25.44;56.32
6506;BME280;3286;49.858;8.768;2023-08-20T00:47:10;99556.47;;;25.20;57.35
6506;BME280;3286;49.858;8.768;2023-08-20T00:49:39;99563.13;;;25.41;56.80
6506;BME280;3286;49.858;8.768;2023-08-20T00:52:06;99559.66;;;25.57;55.83
6506;BME280;3286;49.858;8.768;2023-08-20T00:54:35;99560.06;;;25.49;56.17
6506;BME280;3286;49.858;8.768;2023-08-20T00:57:02;99566.41;;;25.55;56.18
6506;BME280;3286;49.858;8.768;2023-08-20T00:59:30;99557.44;;;25.42;55.92
6506;BME280;3286;49.858;8.768;2023-08-20T01:01:57;99558.56;;;25.29;56.75
6506;BME280;3286;49.858;8.768;2023-08-20T01:04:24;99558.63;;;25.46;56.11
6506;BME280;3286;49.858;8.768;2023-08-20T01:06:56;99561.22;;;25.53;55.34
6506;BME280;3286;49.858;8.768;2023-08-20T01:09:33;99559.66;;;25.57;55.21
6506;BME280;3286;49.858;8.768;2023-08-20T01:12:03;99559.28;;;25.66;55.34
6506;BME280;3286;49.858;8.768;2023-08-20T01:14:30;99559.63;;;25.69;54.76
6506;BME280;3286;49.858;8.768;2023-08-20T01:16:56;99557.81;;;26.04;53.96
6506;BME280;3286;49.858;8.768;2023-08-20T01:19:23;99554.41;;;25.80;54.98
6506;BME280;3286;49.858;8.768;2023-08-20T01:22:05;99557.31;;;26.07;54.27
6506;BME280;3286;49.858;8.768;2023-08-20T01:24:46;99554.38;;;26.09;53.90
6506;BME280;3286;49.858;8.768;2023-08-20T01:27:28;99557.38;;;25.78;54.69
6506;BME280;3286;49.858;8.768;2023-08-20T01:30:03;99548.66;;;25.35;55.81
6506;BME280;3286;49.858;8.768;2023-08-20T01:32:30;99545.69;;;25.49;55.38
6506;BME280;3286;49.858;8.768;2023-08-20T01:34:57;99547.28;;;25.33;55.71
6506;BME280;3286;49.858;8.768;2023-08-20T01:37:24;99539.88;;;25.28;56.04
6506;BME280;3286;49.858;8.768;2023-08-20T01:39:50;99543.28;;;25.23;56.09
6506;BME280;3286;49.858;8.768;2023-08-20T01:42:18;99537.94;;;25.40;55.24
6506;BME280;3286;49.858;8.768;2023-08-20T01:44:44;99545.69;;;24.84;57.21
6506;BME280;3286;49.858;8.768;2023-08-20T01:47:12;99539.91;;;25.04;56.65
6506;BME280;3286;49.858;8.768;2023-08-20T01:49:39;99542.66;;;24.80;57.21
6506;BME280;3286;49.858;8.768;2023-08-20T01:52:05;99536.66;;;24.78;57.25
6506;BME280;3286;49.858;8.768;2023-08-20T01:54:32;99547.34;;;24.85;57.07
6506;BME280;3286;49.858;8.768;2023-08-20T01:56:59;99544.41;;;24.74;57.42
6506;BME280;3286;49.858;8.768;2023-08-20T01:59:25;99540.47;;;25.18;56.56
6506;BME280;3286;49.858;8.768;2023-08-20T02:01:52;99528.63;;;25.07;56.13
6506;BME280;3286;49.858;8.768;2023-08-20T02:04:20;99526.31;;;24.63;57.67
6506;BME280;3286;49.858;8.768;2023-08-20T02:06:46;99521.25;;;24.55;57.86
6506;BME280;3286;49.858;8.768;2023-08-20T02:09:13;99528.53;;;24.54;57.56
6506;BME280;3286;49.858;8.768;2023-08-20T02:11:40;99523.97;;;24.43;58.23
6506;BME280;3286;49.858;8.768;2023-08-20T02:14:06;99525.25;;;24.64;57.35
6506;BME280;3286;49.858;8.768;2023-08-20T02:16:33;99525.25;;;24.64;57.27
6506;BME280;3286;49.858;8.768;2023-08-20T02:19:00;99530.06;;;24.50;57.60
6506;BME280;3286;49.858;8.768;2023-08-20T02:21:29;99529.44;;;24.24;58.17
6506;BME280;3286;49.858;8.768;2023-08-20T02:23:56;99545.41;;;24.26;58.33
6506;BME280;3286;49.858;8.768;2023-08-20T02:26:22;99546.13;;;23.91;59.52
6506;BME280;3286;49.858;8.768;2023-08-20T02:28:49;99544.16;;;24.28;58.20
6506;BME280;3286;49.858;8.768;2023-08-20T02:31:16;99552.47;;;23.96;59.27
6506;BME280;3286;49.858;8.768;2023-08-20T02:33:42;99549.72;;;24.15;59.24
6506;BME280;3286;49.858;8.768;2023-08-20T02:36:09;99555.41;;;24.37;58.20
6506;BME280;3286;49.858;8.768;2023-08-20T02:38:37;99550.56;;;24.15;58.56
6506;BME280;3286;49.858;8.768;2023-08-20T02:41:04;99550.22;;;24.24;58.20
6506;BME280;3286;49.858;8.768;2023-08-20T02:43:31;99550.88;;;23.77;59.31
6506;BME280;3286;49.858;8.768;2023-08-20T02:45:57;99552.91;;;23.81;59.35
6506;BME280;3286;49.858;8.768;2023-08-20T02:48:24;99556.53;;;23.75;59.51
6506;BME280;3286;49.858;8.768;2023-08-20T02:50:52;99554.94;;;23.98;58.54
6506;BME280;3286;49.858;8.768;2023-08-20T02:53:19;99558.28;;;23.81;58.90
6506;BME280;3286;49.858;8.768;2023-08-20T02:55:47;99559.72;;;24.14;58.28
6506;BME280;3286;49.858;8.768;2023-08-20T02:58:14;99558.63;;;24.04;58.38
6506;BME280;3286;49.858;8.768;2023-08-20T03:00:41;99563.28;;;24.39;57.41
6506;BME280;3286;49.858;8.768;2023-08-20T03:03:08;99557.63;;;24.28;57.49
6506;BME280;3286;49.858;8.768;2023-08-20T03:05:35;99556.22;;;24.26;57.41
6506;BME280;3286;49.858;8.768;2023-08-20T03:08:02;99556.00;;;24.27;57.62
6506;BME280;3286;49.858;8.768;2023-08-20T03:10:30;99560.00;;;24.37;57.42
6506;BME280;3286;49.858;8.768;2023-08-20T03:12:58;99567.00;;;24.26;57.74
6506;BME280;3286;49.858;8.768;2023-08-20T03:15:25;99567.69;;;24.09;58.16
6506;BME280;3286;49.858;8.768;2023-08-20T03:17:51;99563.94;;;24.22;57.90
6506;BME280;3286;49.858;8.768;2023-08-20T03:20:18;99560.00;;;24.37;57.01
6506;BME280;3286;49.858;8.768;2023-08-20T03:22:45;99553.97;;;24.23;57.52
6506;BME280;3286;49.858;8.768;2023-08-20T03:25:11;99546.00;;;24.28;57.24
6506;BME280;3286;49.858;8.768;2023-08-20T03:27:38;99546.03;;;23.97;57.67
6506;BME280;3286;49.858;8.768;2023-08-20T03:30:07;99550.06;;;23.76;58.09
6506;BME280;3286;49.858;8.768;2023-08-20T03:32:33;99549.81;;;23.78;58.31
6506;BME280;3286;49.858;8.768;2023-08-20T03:35:00;99557.88;;;23.66;58.76
6506;BME280;3286;49.858;8.768;2023-08-20T03:37:27;99554.03;;;23.73;58.88
6506;BME280;3286;49.858;8.768;2023-08-20T03:39:54;99554.47;;;23.40;59.80
6506;BME280;3286;49.858;8.768;2023-08-20T03:42:20;99551.25;;;23.50;59.81
6506;BME280;3286;49.858;8.768;2023-08-20T03:44:47;99551.50;;;23.91;58.91
6506;BME280;3286;49.858;8.768;2023-08-20T03:47:15;99552.59;;;23.40;59.86
6506;BME280;3286;49.858;8.768;2023-08-20T03:49:45;99559.94;;;23.52;59.57
6506;BME280;3286;49.858;8.768;2023-08-20T03:52:12;99557.72;;;23.61;59.42
6506;BME280;3286;49.858;8.768;2023-08-20T03:54:39;99559.63;;;23.60;58.93
6506;BME280;3286;49.858;8.768;2023-08-20T03:57:05;99553.22;;;23.73;58.46
6506;BME280;3286;49.858;8.768;2023-08-20T03:59:32;99552.31;;;23.30;59.27
6506;BME280;3286;49.858;8.768;2023-08-20T04:01:59;99554.19;;;23.29;59.57
6506;BME280;3286;49.858;8.768;2023-08-20T04:04:27;99550.22;;;23.63;58.32
6506;BME280;3286;49.858;8.768;2023-08-20T04:06:53;99556.72;;;23.43;59.26
6506;BME280;3286;49.858;8.768;2023-08-20T04:09:20;99560.06;;;23.20;59.67
6506;BME280;3286;49.858;8.768;2023-08-20T04:11:47;99557.91;;;23.47;58.60
6506;BME280;3286;49.858;8.768;2023-08-20T04:14:13;99562.25;;;23.67;58.05
6506;BME280;3286;49.858;8.768;2023-08-20T04:16:40;99560.00;;;23.45;58.56
6506;BME280;3286;49.858;8.768;2023-08-20T04:19:07;99572.22;;;23.29;59.28
6506;BME280;3286;49.858;8.768;2023-08-20T04:21:35;99580.91;;;23.31;59.21
6506;BME280;3286;49.858;8.768;2023-08-20T04:24:01;99577.44;;;23.24;59.44
6506;BME280;3286;49.858;8.768;2023-08-20T04:26:28;99569.00;;;23.39;58.74
6506;BME280;3286;49.858;8.768;2023-08-20T04:28:55;99580.97;;;23.24;59.64
6506;BME280;3286;49.858;8.768;2023-08-20T04:31:21;99575.66;;;22.74;60.81
6506;BME280;3286;49.858;8.768;2023-08-20T04:33:48;99582.66;;;23.25;59.50
6506;BME280;3286;49.858;8.768;2023-08-20T04:36:14;99580.16;;;23.42;58.97
6506;BME280;3286;49.858;8.768;2023-08-20T04:38:42;99580.22;;;23.54;58.81
6506;BME280;3286;49.858;8.768;2023-08-20T04:41:09;99578.88;;;23.45;58.71
6506;BME280;3286;49.858;8.768;2023-08-20T04:43:35;99588.78;;;22.89;60.59
6506;BME280;3286;49.858;8.768;2023-08-20T04:46:02;99586.44;;;23.18;60.02
6506;BME280;3286;49.858;8.768;2023-08-20T04:48:29;99586.16;;;23.26;59.92
6506;BME280;3286;49.858;8.768;2023-08-20T04:50:55;99596.47;;;23.10;60.82
6506;BME280;3286;49.858;8.768;2023-08-20T04:53:22;99609.13;;;22.84;61.45
6506;BME280;3286;49.858;8.768;2023-08-20T04:55:50;99604.34;;;23.31;60.36
6506;BME280;3286;49.858;8.768;2023-08-20T04:58:16;99606.66;;;22.83;61.09
6506;BME280;3286;49.858;8.768;2023-08-20T05:00:43;99612.63;;;23.10;60.38
6506;BME280;3286;49.858;8.768;2023-08-20T05:03:10;99612.78;;;23.15;60.45
6506;BME280;3286;49.858;8.768;2023-08-20T05:05:36;99606.97;;;23.37;59.97
6506;BME280;3286;49.858;8.768;2023-08-20T05:08:03;99618.00;;;23.10;60.85
6506;BME280;3286;49.858;8.768;2023-08-20T05:10:30;99615.66;;;22.95;61.37
6506;BME280;3286;49.858;8.768;2023-08-20T05:12:58;99614.53;;;23.47;60.20
6506;BME280;3286;49.858;8.768;2023-08-20T05:15:25;99620.00;;;23.59;60.18
6506;BME280;3286;49.858;8.768;2023-08-20T05:17:51;99613.94;;;23.45;60.95
6506;BME280;3286;49.858;8.768;2023-08-20T05:20:18;99615.44;;;23.41;61.52
6506;BME280;3286;49.858;8.768;2023-08-20T05:22:44;99614.47;;;23.84;60.32
6506;BME280;3286;49.858;8.768;2023-08-20T05:25:11;99619.03;;;23.84;60.47
6506;BME280;3286;49.858;8.768;2023-08-20T05:27:38;99612.16;;;23.88;60.44
6506;BME280;3286;49.858;8.768;2023-08-20T05:30:07;99622.50;;;23.91;60.77
6506;BME280;3286;49.858;8.768;2023-08-20T05:32:34;99615.06;;;24.05;60.42
6506;BME280;3286;49.858;8.768;2023-08-20T05:35:01;99610.06;;;24.21;59.91
6506;BME280;3286;49.858;8.768;2023-08-20T05:37:29;99612.31;;;24.24;59.83
6506;BME280;3286;49.858;8.768;2023-08-20T05:39:56;99617.44;;;24.13;60.77
6506;BME280;3286;49.858;8.768;2023-08-20T05:42:22;99621.72;;;24.33;60.27
6506;BME280;3286;49.858;8.768;2023-08-20T05:44:49;99628.63;;;24.29;60.44
6506;BME280;3286;49.858;8.768;2023-08-20T05:47:17;99632.53;;;24.45;60.23
6506;BME280;3286;49.858;8.768;2023-08-20T05:49:43;99634.34;;;24.63;59.34
6506;BME280;3286;49.858;8.768;2023-08-20T05:52:10;99633.22;;;24.95;58.84
6506;BME280;3286;49.858;8.768;2023-08-20T05:54:36;99631.34;;;24.83;58.97
6506;BME280;3286;49.858;8.768;2023-08-20T05:57:03;99632.28;;;25.01;58.35
6506;BME280;3286;49.858;8.768;2023-08-20T05:59:30;99630.38;;;24.78;58.91
6506;BME280;3286;49.858;8.768;2023-08-20T06:01:56;99637.78;;;25.06;58.02
6506;BME280;3286;49.858;8.768;2023-08-20T06:04:24;99640.84;;;24.98;58.37
6506;BME280;3286;49.858;8.768;2023-08-20T06:06:51;99638.72;;;25.00;58.82
6506;BME280;3286;49.858;8.768;2023-08-20T06:09:17;99639.91;;;25.04;58.32
6506;BME280;3286;49.858;8.768;2023-08-20T06:11:44;99643.31;;;25.23;57.73
6506;BME280;3286;49.858;8.768;2023-08-20T06:14:12;99638.16;;;25.34;57.49
6506;BME280;3286;49.858;8.768;2023-08-20T06:16:38;99637.44;;;25.50;56.69
6506;BME280;3286;49.858;8.768;2023-08-20T06:19:05;99636.84;;;25.48;56.92
6506;BME280;3286;49.858;8.768;2023-08-20T06:21:33;99641.88;;;25.44;57.28
6506;BME280;3286;49.858;8.768;2023-08-20T06:24:00;99640.56;;;25.71;56.44
6506;BME280;3286;49.858;8.768;2023-08-20T06:26:26;99643.13;;;25.66;56.73
6506;BME280;3286;49.858;8.768;2023-08-20T06:28:53;99646.91;;;25.65;56.39
6506;BME280;3286;49.858;8.768;2023-08-20T06:31:19;99652.84;;;25.91;56.21
6506;BME280;3286;49.858;8.768;2023-08-20T06:33:46;99659.19;;;25.96;55.58
6506;BME280;3286;49.858;8.768;2023-08-20T06:36:13;99657.06;;;25.98;55.79
6506;BME280;3286;49.858;8.768;2023-08-20T06:38:41;99659.50;;;26.00;55.40
6506;BME280;3286;49.858;8.768;2023-08-20T06:41:07;99653.06;;;25.89;56.28
6506;BME280;3286;49.858;8.768;2023-08-20T06:43:34;99656.28;;;26.15;55.71
6506;BME280;3286;49.858;8.768;2023-08-20T06:46:01;99653.91;;;25.89;56.14
6506;BME280;3286;49.858;8.768;2023-08-20T06:48:28;99654.34;;;25.98;56.03
6506;BME280;3286;49.858;8.768;2023-08-20T06:50:54;99658.41;;;26.42;55.30
6506;BME280;3286;49.858;8.768;2023-08-20T06:53:21;99656.78;;;26.58;54.80
6506;BME280;3286;49.858;8.768;2023-08-20T06:55:49;99662.53;;;26.96;53.68
6506;BME280;3286;49.858;8.768;2023-08-20T06:58:16;99665.22;;;26.79;54.52
6506;BME280;3286;49.858;8.768;2023-08-20T07:00:42;99655.53;;;26.66;54.70
6506;BME280;3286;49.858;8.768;2023-08-20T07:03:09;99659.25;;;26.94;54.24
6506;BME280;3286;49.858;8.768;2023-08-20T07:05:36;99663.16;;;27.20;53.22
6506;BME280;3286;49.858;8.768;2023-08-20T07:08:03;99665.56;;;26.82;53.92
6506;BME280;3286;49.858;8.768;2023-08-20T07:10:31;99670.69;;;26.96;53.70
6506;BME280;3286;49.858;8.768;2023-08-20T07:12:59;99658.38;;;27.27;53.22
6506;BME280;3286;49.858;8.768;2023-08-20T07:15:25;99663.75;;;27.44;53.11
6506;BME280;3286;49.858;8.768;2023-08-20T07:17:52;99676.88;;;27.70;52.28
6506;BME280;3286;49.858;8.768;2023-08-20T07:20:19;99672.59;;;27.35;53.41
6506;BME280;3286;49.858;8.768;2023-08-20T07:22:45;99673.72;;;27.56;52.44
6506;BME280;3286;49.858;8.768;2023-08-20T07:25:12;99677.94;;;27.91;51.80
6506;BME280;3286;49.858;8.768;2023-08-20T07:27:38;99673.81;;;28.11;51.17
6506;BME280;3286;49.858;8.768;2023-08-20T07:30:07;99671.72;;;28.45;51.03
6506;BME280;3286;49.858;8.768;2023-08-20T07:32:34;99672.75;;;28.72;50.21
6506;BME280;3286;49.858;8.768;2023-08-20T07:35:01;99665.97;;;28.69;50.32
6506;BME280;3286;49.858;8.768;2023-08-20T07:37:27;99662.22;;;28.15;50.74
6506;BME280;3286;49.858;8.768;2023-08-20T07:39:54;99665.22;;;28.46;50.59
6506;BME280;3286;49.858;8.768;2023-08-20T07:42:20;99663.84;;;28.76;49.75
6506;BME280;3286;49.858;8.768;2023-08-20T07:44:47;99666.69;;;28.59;50.17
6506;BME280;3286;49.858;8.768;2023-08-20T07:47:15;99667.44;;;28.82;49.39
6506;BME280;3286;49.858;8.768;2023-08-20T07:49:42;99663.84;;;27.94;51.20
6506;BME280;3286;49.858;8.768;2023-08-20T07:52:08;99661.00;;;28.06;51.68
6506;BME280;3286;49.858;8.768;2023-08-20T07:54:35;99671.63;;;28.35;49.63
6506;BME280;3286;49.858;8.768;2023-08-20T07:57:02;99671.69;;;28.40;49.96
6506;BME280;3286;49.858;8.768;2023-08-20T07:59:29;99662.50;;;28.19;50.58
6506;BME280;3286;49.858;8.768;2023-08-20T08:01:55;99667.16;;;28.18;50.27
6506;BME280;3286;49.858;8.768;2023-08-20T08:04:24;99666.34;;;28.51;49.61
6506;BME280;3286;49.858;8.768;2023-08-20T08:06:51;99671.41;;;28.69;49.44
6506;BME280;3286;49.858;8.768;2023-08-20T08:09:19;99663.16;;;28.91;48.63
6506;BME280;3286;49.858;8.768;2023-08-20T08:11:46;99662.19;;;29.13;47.85
6506;BME280;3286;49.858;8.768;2023-08-20T08:14:13;99662.31;;;29.29;47.78
6506;BME280;3286;49.858;8.768;2023-08-20T08:16:40;99665.41;;;29.43;48.02
6506;BME280;3286;49.858;8.768;2023-08-20T08:19:06;99667.94;;;29.60;47.29
6506;BME280;3286;49.858;8.768;2023-08-20T08:21:34;99673.63;;;28.77;48.63
6506;BME280;3286;49.858;8.768;2023-08-20T08:24:01;99671.28;;;28.04;50.68
6506;BME280;3286;49.858;8.768;2023-08-20T08:26:28;99678.72;;;28.36;49.55
6506;BME280;3286;49.858;8.768;2023-08-20T08:28:55;99676.28;;;29.05;48.52
6506;BME280;3286;49.858;8.768;2023-08-20T08:31:23;99679.59;;;29.12;48.30
6506;BME280;3286;49.858;8.768;2023-08-20T08:33:49;99680.22;;;29.73;46.23
6506;BME280;3286;49.858;8.768;2023-08-20T08:36:16;99675.06;;;29.71;46.65
6506;BME280;3286;49.858;8.768;2023-08-20T08:38:44;99681.06;;;29.30;47.57
6506;BME280;3286;49.858;8.768;2023-08-20T08:41:12;99677.78;;;29.76;46.63
6506;BME280;3286;49.858;8.768;2023-08-20T08:43:39;99672.47;;;30.18;45.10
6506;BME280;3286;49.858;8.768;2023-08-20T08:46:07;99679.94;;;30.64;44.68
6506;BME280;3286;49.858;8.768;2023-08-20T08:48:34;99674.19;;;30.91;44.61
6506;BME280;3286;49.858;8.768;2023-08-20T08:51:01;99679.88;;;31.21;43.77
6506;BME280;3286;49.858;8.768;2023-08-20T08:53:28;99681.22;;;31.29;44.05
6506;BME280;3286;49.858;8.768;2023-08-20T08:55:58;99677.69;;;31.28;43.37
6506;BME280;3286;49.858;8.768;2023-08-20T08:58:25;99685.88;;;31.18;43.13
6506;BME280;3286;49.858;8.768;2023-08-20T09:00:52;99668.38;;;31.29;42.32
6506;BME280;3286;49.858;8.768;2023-08-20T09:03:19;99673.91;;;31.03;43.34
6506;BME280;3286;49.858;8.768;2023-08-20T09:05:47;99676.28;;;31.41;42.93
6506;BME280;3286;49.858;8.768;2023-08-20T09:08:19;99677.13;;;31.16;43.13
6506;BME280;3286;49.858;8.768;2023-08-20T09:10:46;99679.06;;;31.26;44.00
6506;BME280;3286;49.858;8.768;2023-08-20T09:13:14;99676.47;;;31.60;43.41
6506;BME280;3286;49.858;8.768;2023-08-20T09:15:41;99680.34;;;31.54;43.72
6506;BME280;3286;49.858;8.768;2023-08-20T09:18:09;99673.63;;;30.74;44.54
6506;BME280;3286;49.858;8.768;2023-08-20T09:20:36;99680.94;;;30.27;45.08
6506;BME280;3286;49.858;8.768;2023-08-20T09:23:03;99688.63;;;30.92;43.23
6506;BME280;3286;49.858;8.768;2023-08-20T09:25:30;99673.25;;;31.53;41.85
6506;BME280;3286;49.858;8.768;2023-08-20T09:27:56;99686.88;;;31.58;42.22
6506;BME280;3286;49.858;8.768;2023-08-20T09:30:25;99674.19;;;31.93;41.07
6506;BME280;3286;49.858;8.768;2023-08-20T09:33:05;99668.50;;;32.64;40.14
6506;BME280;3286;49.858;8.768;2023-08-20T09:35:31;99683.25;;;32.29;40.27
6506;BME280;3286;49.858;8.768;2023-08-20T09:37:59;99680.91;;;32.51;40.16
6506;BME280;3286;49.858;8.768;2023-08-20T09:40:27;99681.44;;;32.54;40.07
6506;BME280;3286;49.858;8.768;2023-08-20T09:42:54;99682.03;;;32.50;39.03
6506;BME280;3286;49.858;8.768;2023-08-20T09:45:21;99675.50;;;32.76;38.69
6506;BME280;3286;49.858;8.768;2023-08-20T09:47:54;99680.13;;;32.51;38.93
6506;BME280;3286;49.858;8.768;2023-08-20T09:50:22;99676.25;;;32.12;38.51
6506;BME280;3286;49.858;8.768;2023-08-20T09:52:56;99683.25;;;32.29;39.54
6506;BME280;3286;49.858;8.768;2023-08-20T09:55:29;99677.41;;;32.80;38.07
6506;BME280;3286;49.858;8.768;2023-08-20T09:57:58;99676.41;;;32.71;37.46
6506;BME280;3286;49.858;8.768;2023-08-20T10:00:25;99666.53;;;32.35;39.58
6506;BME280;3286;49.858;8.768;2023-08-20T10:02:55;99672.78;;;32.41;38.79
6506;BME280;3286;49.858;8.768;2023-08-20T10:05:23;99671.84;;;32.91;38.07
6506;BME280;3286;49.858;8.768;2023-08-20T10:07:49;99664.19;;;33.47;37.09
6506;BME280;3286;49.858;8.768;2023-08-20T10:10:17;99667.94;;;33.75;36.18
6506;BME280;3286;49.858;8.768;2023-08-20T10:12:44;99667.41;;;33.73;36.32
6506;BME280;3286;49.858;8.768;2023-08-20T10:15:12;99670.38;;;33.04;37.57
6506;BME280;3286;49.858;8.768;2023-08-20T10:17:41;99669.75;;;33.80;37.18
6506;BME280;3286;49.858;8.768;2023-08-20T10:20:13;99661.66;;;34.13;36.65
6506;BME280;3286;49.858;8.768;2023-08-20T10:22:41;99667.69;;;33.72;35.40
6506;BME280;3286;49.858;8.768;2023-08-20T10:25:10;99670.78;;;34.08;34.10
6506;BME280;3286;49.858;8.768;2023-08-20T10:27:39;99669.34;;;34.49;34.12
6506;BME280;3286;49.858;8.768;2023-08-20T10:30:10;99663.22;;;34.72;35.59
6506;BME280;3286;49.858;8.768;2023-08-20T10:32:46;99660.34;;;34.44;35.20
6506;BME280;3286;49.858;8.768;2023-08-20T10:35:15;99661.22;;;34.77;35.26
6506;BME280;3286;49.858;8.768;2023-08-20T10:38:03;99661.50;;;34.04;35.07
6506;BME280;3286;49.858;8.768;2023-08-20T10:40:52;99663.59;;;33.20;36.56
6506;BME280;3286;49.858;8.768;2023-08-20T10:43:32;99651.78;;;34.50;32.44
6506;BME280;3286;49.858;8.768;2023-08-20T10:46:13;99646.63;;;34.63;33.09
6506;BME280;3286;49.858;8.768;2023-08-20T10:48:41;99650.53;;;34.23;34.28
6506;BME280;3286;49.858;8.768;2023-08-20T10:51:12;99659.03;;;34.41;30.91
6506;BME280;3286;49.858;8.768;2023-08-20T10:53:40;99646.53;;;34.54;31.59
6506;BME280;3286;49.858;8.768;2023-08-20T10:56:12;99655.31;;;34.70;31.94
6506;BME280;3286;49.858;8.768;2023-08-20T10:58:43;99649.88;;;34.65;32.70
6506;BME280;3286;49.858;8.768;2023-08-20T11:01:15;99641.06;;;34.68;33.38
6506;BME280;3286;49.858;8.768;2023-08-20T11:03:43;99645.00;;;34.48;33.59
6506;BME280;3286;49.858;8.768;2023-08-20T11:06:11;99641.66;;;34.46;34.51
6506;BME280;3286;49.858;8.768;2023-08-20T11:08:38;99646.53;;;35.01;33.04
6506;BME280;3286;49.858;8.768;2023-08-20T11:11:05;99653.03;;;35.05;32.28
6506;BME280;3286;49.858;8.768;2023-08-20T11:13:33;99643.44;;;34.03;32.56
6506;BME280;3286;49.858;8.768;2023-08-20T11:16:01;99640.13;;;34.59;32.22
6506;BME280;3286;49.858;8.768;2023-08-20T11:18:28;99642.66;;;35.30;30.95
6506;BME280;3286;49.858;8.768;2023-08-20T11:20:56;99637.69;;;35.60;31.46
6506;BME280;3286;49.858;8.768;2023-08-20T11:23:25;99634.69;;;35.85;30.45
6506;BME280;3286;49.858;8.768;2023-08-20T11:25:51;99634.72;;;35.43;31.89
6506;BME280;3286;49.858;8.768;2023-08-20T11:28:19;99636.06;;;35.59;31.36
6506;BME280;3286;49.858;8.768;2023-08-20T11:30:46;99642.38;;;35.96;30.50
6506;BME280;3286;49.858;8.768;2023-08-20T11:33:13;99629.75;;;35.95;30.45
6506;BME280;3286;49.858;8.768;2023-08-20T11:35:41;99633.19;;;35.64;30.28
6506;BME280;3286;49.858;8.768;2023-08-20T11:38:09;99639.16;;;35.80;30.10
6506;BME280;3286;49.858;8.768;2023-08-20T11:40:37;99637.69;;;35.46;31.52
6506;BME280;3286;49.858;8.768;2023-08-20T11:43:04;99634.13;;;35.18;30.39
6506;BME280;3286;49.858;8.768;2023-08-20T11:45:31;99633.47;;;35.77;30.30
6506;BME280;3286;49.858;8.768;2023-08-20T11:47:58;99627.72;;;36.01;29.48
6506;BME280;3286;49.858;8.768;2023-08-20T11:50:26;99626.06;;;35.77;29.26
6506;BME280;3286;49.858;8.768;2023-08-20T11:52:53;99626.81;;;35.92;31.53
6506;BME280;3286;49.858;8.768;2023-08-20T11:55:24;99618.91;;;35.90;30.47
6506;BME280;3286;49.858;8.768;2023-08-20T11:57:52;99627.78;;;35.73;30.70
6506;BME280;3286;49.858;8.768;2023-08-20T12:00:26;99621.53;;;36.18;30.19
6506;BME280;3286;49.858;8.768;2023-08-20T12:02:53;99619.56;;;36.10;29.78
6506;BME280;3286;49.858;8.768;2023-08-20T12:05:21;99623.63;;;35.48;30.21
6506;BME280;3286;49.858;8.768;2023-08-20T12:07:56;99619.31;;;35.84;30.06
6506;BME280;3286;49.858;8.768;2023-08-20T12:10:23;99611.53;;;36.22;30.58
6506;BME280;3286;49.858;8.768;2023-08-20T12:12:52;99609.59;;;36.46;29.92
6506;BME280;3286;49.858;8.768;2023-08-20T12:15:19;99609.13;;;36.21;30.90
6506;BME280;3286;49.858;8.768;2023-08-20T12:18:01;99614.44;;;36.72;30.37
6506;BME280;3286;49.858;8.768;2023-08-20T12:20:31;99611.22;;;36.01;30.02
6506;BME280;3286;49.858;8.768;2023-08-20T12:22:59;99604.13;;;35.86;30.56
6506;BME280;3286;49.858;8.768;2023-08-20T12:25:29;99603.78;;;36.24;30.34
6506;BME280;3286;49.858;8.768;2023-08-20T12:27:58;99608.94;;;35.80;30.22
6506;BME280;3286;49.858;8.768;2023-08-20T12:30:25;99595.03;;;36.22;29.69
6506;BME280;3286;49.858;8.768;2023-08-20T12:32:52;99599.91;;;36.48;29.40
6506;BME280;3286;49.858;8.768;2023-08-20T12:35:19;99602.72;;;35.52;30.28
6506;BME280;3286;49.858;8.768;2023-08-20T12:37:46;99599.75;;;35.85;29.63
6506;BME280;3286;49.858;8.768;2023-08-20T12:40:13;99601.59;;;36.58;29.49
6506;BME280;3286;49.858;8.768;2023-08-20T12:42:40;99592.84;;;36.56;29.02
6506;BME280;3286;49.858;8.768;2023-08-20T12:45:08;99597.63;;;36.73;28.39
6506;BME280;3286;49.858;8.768;2023-08-20T12:47:38;99586.19;;;36.89;28.32
6506;BME280;3286;49.858;8.768;2023-08-20T12:50:05;99592.19;;;36.91;28.89
6506;BME280;3286;49.858;8.768;2023-08-20T12:52:33;99584.13;;;35.72;29.79
6506;BME280;3286;49.858;8.768;2023-08-20T12:55:00;99584.78;;;36.37;28.90
6506;BME280;3286;49.858;8.768;2023-08-20T12:57:27;99583.19;;;36.67;28.99
6506;BME280;3286;49.858;8.768;2023-08-20T12:59:54;99584.41;;;36.30;28.80
6506;BME280;3286;49.858;8.768;2023-08-20T13:02:23;99585.31;;;36.16;29.63
6506;BME280;3286;49.858;8.768;2023-08-20T13:04:50;99583.38;;;36.17;29.82
6506;BME280;3286;49.858;8.768;2023-08-20T13:07:17;99579.63;;;35.53;30.08
6506;BME280;3286;49.858;8.768;2023-08-20T13:09:45;99581.53;;;35.38;30.58
6506;BME280;3286;49.858;8.768;2023-08-20T13:12:12;99572.59;;;36.06;29.84
6506;BME280;3286;49.858;8.768;2023-08-20T13:14:40;99586.72;;;35.54;31.76
6506;BME280;3286;49.858;8.768;2023-08-20T13:17:08;99574.28;;;35.93;30.23
6506;BME280;3286;49.858;8.768;2023-08-20T13:19:36;99575.22;;;36.34;29.42
6506;BME280;3286;49.858;8.768;2023-08-20T13:22:03;99567.75;;;36.58;28.02
6506;BME280;3286;49.858;8.768;2023-08-20T13:24:30;99569.09;;;35.92;28.48